sensor_id;sensor_type;location;lat;lon;timestamp;pressure;altitude;pressure_sealevel;temperature;humidity
18509;BME280;9383;50.928;12.116;2023-12-20T00:02:16;98470.72;;;4.07;100.00
18509;BME280;9383;50.928;12.116;2023-12-20T00:04:43;98509.63;;;4.35;100.00
18509;BME280;9383;50.928;12.116;2023-12-20T00:07:12;98508.72;;;4.35;100.00
18509;BME280;9383;50.928;12.116;2023-12-20T00:09:57;98455.13;;;3.98;100.00
18509;BME280;9383;50.928;12.116;2023-12-20T00:12:43;98503.53;;;4.33;100.00
18509;BME280;9383;50.928;12.116;2023-12-20T00:15:10;98500.06;;;4.31;100.00
18509;BME280;9383;50.928;12.116;2023-12-20T00:17:36;98438.63;;;3.91;100.00
18509;BME280;9383;50.928;12.116;2023-12-20T00:20:22;98497.44;;;4.31;100.00
18509;BME280;9383;50.928;12.116;2023-12-20T00:22:54;98495.66;;;4.32;100.00
18509;BME280;9383;50.928;12.116;2023-12-20T00:25:36;98395.28;;;3.70;100.00
18509;BME280;9383;50.928;12.116;2023-12-20T00:28:09;98468.81;;;4.17;100.00
18509;BME280;9383;50.928;12.116;2023-12-20T00:30:40;98482.66;;;4.26;100.00
18509;BME280;9383;50.928;12.116;2023-12-20T00:33:14;98483.59;;;4.21;100.00
18509;BME280;9383;50.928;12.116;2023-12-20T00:35:47;98487.88;;;4.27;100.00
18509;BME280;9383;50.928;12.116;2023-12-20T00:38:33;98452.38;;;4.06;100.00
18509;BME280;9383;50.928;12.116;2023-12-20T00:41:15;98389.16;;;3.70;100.00
18509;BME280;9383;50.928;12.116;2023-12-20T00:44:01;98486.94;;;4.31;100.00
18509;BME280;9383;50.928;12.116;2023-12-20T00:46:39;98383.25;;;3.57;100.00
18509;BME280;9383;50.928;12.116;2023-12-20T00:49:16;98482.75;;;4.21;100.00
18509;BME280;9383;50.928;12.116;2023-12-20T00:51:47;98390.81;;;3.75;100.00
18509;BME280;9383;50.928;12.116;2023-12-20T00:54:25;98487.03;;;4.25;100.00
18509;BME280;9383;50.928;12.116;2023-12-20T00:57:11;98430.75;;;3.93;100.00
18509;BME280;9383;50.928;12.116;2023-12-20T00:59:43;98477.38;;;4.29;100.00
18509;BME280;9383;50.928;12.116;2023-12-20T01:02:10;98459.13;;;4.21;100.00
18509;BME280;9383;50.928;12.116;2023-12-20T01:04:39;98472.13;;;4.27;100.00
18509;BME280;9383;50.928;12.116;2023-12-20T01:07:12;98475.66;;;4.26;100.00
18509;BME280;9383;50.928;12.116;2023-12-20T01:09:45;98438.47;;;4.01;100.00
18509;BME280;9383;50.928;12.116;2023-12-20T01:12:16;98471.28;;;4.25;100.00
18509;BME280;9383;50.928;12.116;2023-12-20T01:14:50;98391.63;;;3.77;100.00
18509;BME280;9383;50.928;12.116;2023-12-20T01:17:36;98472.13;;;4.29;100.00
18509;BME280;9383;50.928;12.116;2023-12-20T01:20:21;98373.34;;;3.74;100.00
18509;BME280;9383;50.928;12.116;2023-12-20T01:22:48;98462.47;;;4.31;100.00
18509;BME280;9383;50.928;12.116;2023-12-20T01:25:23;98462.50;;;4.28;100.00
18509;BME280;9383;50.928;12.116;2023-12-20T01:27:51;98465.09;;;4.29;100.00
18509;BME280;9383;50.928;12.116;2023-12-20T01:30:19;98452.94;;;4.25;100.00
18509;BME280;9383;50.928;12.116;2023-12-20T01:32:51;98448.59;;;4.22;100.00
18509;BME280;9383;50.928;12.116;2023-12-20T01:35:42;98349.84;;;3.70;100.00
18509;BME280;9383;50.928;12.116;2023-12-20T01:38:21;98368.84;;;3.83;100.00
18509;BME280;9383;50.928;12.116;2023-12-20T01:40:51;98435.38;;;4.29;100.00
18509;BME280;9383;50.928;12.116;2023-12-20T01:43:24;98440.66;;;4.27;100.00
18509;BME280;9383;50.928;12.116;2023-12-20T01:45:59;98412.19;;;4.05;100.00
18509;BME280;9383;50.928;12.116;2023-12-20T01:48:26;98437.13;;;4.28;100.00
18509;BME280;9383;50.928;12.116;2023-12-20T01:50:55;98383.56;;;3.90;100.00
18509;BME280;9383;50.928;12.116;2023-12-20T01:53:42;98438.97;;;4.25;100.00
18509;BME280;9383;50.928;12.116;2023-12-20T01:56:11;98332.50;;;3.61;100.00
18509;BME280;9383;50.928;12.116;2023-12-20T01:58:45;98314.25;;;3.56;100.00
18509;BME280;9383;50.928;12.116;2023-12-20T02:01:21;98417.09;;;4.26;100.00
18509;BME280;9383;50.928;12.116;2023-12-20T02:03:54;98421.38;;;4.28;100.00
18509;BME280;9383;50.928;12.116;2023-12-20T02:06:24;98344.38;;;3.84;100.00
18509;BME280;9383;50.928;12.116;2023-12-20T02:08:53;98410.09;;;4.25;100.00
18509;BME280;9383;50.928;12.116;2023-12-20T02:11:39;98322.78;;;3.69;100.00
18509;BME280;9383;50.928;12.116;2023-12-20T02:14:14;98399.56;;;4.26;100.00
18509;BME280;9383;50.928;12.116;2023-12-20T02:16:44;98395.19;;;4.27;100.00
18509;BME280;9383;50.928;12.116;2023-12-20T02:19:30;98371.00;;;4.11;100.00
18509;BME280;9383;50.928;12.116;2023-12-20T02:22:10;98351.28;;;3.88;100.00
18509;BME280;9383;50.928;12.116;2023-12-20T02:24:45;98396.09;;;4.26;100.00
18509;BME280;9383;50.928;12.116;2023-12-20T02:27:31;98293.19;;;3.61;100.00
18509;BME280;9383;50.928;12.116;2023-12-20T02:30:11;98335.59;;;3.85;100.00
18509;BME280;9383;50.928;12.116;2023-12-20T02:32:37;98410.94;;;4.25;100.00
18509;BME280;9383;50.928;12.116;2023-12-20T02:35:04;98392.66;;;4.20;100.00
18509;BME280;9383;50.928;12.116;2023-12-20T02:37:31;98397.81;;;4.27;100.00
18509;BME280;9383;50.928;12.116;2023-12-20T02:40:06;98383.16;;;4.15;100.00
18509;BME280;9383;50.928;12.116;2023-12-20T02:42:41;98410.03;;;4.28;100.00
18509;BME280;9383;50.928;12.116;2023-12-20T02:45:07;98414.41;;;4.27;100.00
18509;BME280;9383;50.928;12.116;2023-12-20T02:47:41;98402.19;;;4.26;100.00
18509;BME280;9383;50.928;12.116;2023-12-20T02:50:13;98396.19;;;4.19;100.00
18509;BME280;9383;50.928;12.116;2023-12-20T02:52:58;98372.78;;;4.08;100.00
18509;BME280;9383;50.928;12.116;2023-12-20T02:55:26;98321.75;;;3.78;100.00
18509;BME280;9383;50.928;12.116;2023-12-20T02:58:11;98353.00;;;3.89;100.00
18509;BME280;9383;50.928;12.116;2023-12-20T03:00:48;98398.84;;;4.18;100.00
18509;BME280;9383;50.928;12.116;2023-12-20T03:03:14;98396.31;;;4.13;100.00
18509;BME280;9383;50.928;12.116;2023-12-20T03:05:47;98302.72;;;3.66;100.00
18509;BME280;9383;50.928;12.116;2023-12-20T03:08:16;98355.53;;;3.95;100.00
18509;BME280;9383;50.928;12.116;2023-12-20T03:11:02;98282.84;;;3.55;100.00
18509;BME280;9383;50.928;12.116;2023-12-20T03:13:41;98338.09;;;3.91;100.00
18509;BME280;9383;50.928;12.116;2023-12-20T03:16:27;98384.88;;;4.16;100.00
18509;BME280;9383;50.928;12.116;2023-12-20T03:19:13;98389.28;;;4.15;100.00
18509;BME280;9383;50.928;12.116;2023-12-20T03:21:45;98376.25;;;4.09;100.00
18509;BME280;9383;50.928;12.116;2023-12-20T03:24:13;98383.22;;;4.12;100.00
18509;BME280;9383;50.928;12.116;2023-12-20T03:26:40;98377.97;;;4.12;100.00
18509;BME280;9383;50.928;12.116;2023-12-20T03:29:11;98377.16;;;4.08;100.00
18509;BME280;9383;50.928;12.116;2023-12-20T03:31:47;98371.91;;;4.08;100.00
18509;BME280;9383;50.928;12.116;2023-12-20T03:34:33;98375.34;;;4.10;100.00
18509;BME280;9383;50.928;12.116;2023-12-20T03:36:59;98373.72;;;4.04;100.00
18509;BME280;9383;50.928;12.116;2023-12-20T03:39:29;98323.47;;;3.79;100.00
18509;BME280;9383;50.928;12.116;2023-12-20T03:42:03;98372.69;;;4.13;100.00
18509;BME280;9383;50.928;12.116;2023-12-20T03:44:49;98332.91;;;3.88;100.00
18509;BME280;9383;50.928;12.116;2023-12-20T03:47:32;98313.94;;;3.73;100.00
18509;BME280;9383;50.928;12.116;2023-12-20T03:50:08;98349.47;;;3.91;100.00
18509;BME280;9383;50.928;12.116;2023-12-20T03:52:34;98381.47;;;4.11;100.00
18509;BME280;9383;50.928;12.116;2023-12-20T03:55:00;98371.88;;;4.10;100.00
18509;BME280;9383;50.928;12.116;2023-12-20T03:57:26;98378.84;;;4.12;100.00
18509;BME280;9383;50.928;12.116;2023-12-20T04:00:12;98340.16;;;3.75;100.00
18509;BME280;9383;50.928;12.116;2023-12-20T04:02:46;98387.63;;;4.08;100.00
18509;BME280;9383;50.928;12.116;2023-12-20T04:05:13;98270.97;;;3.32;100.00
18509;BME280;9383;50.928;12.116;2023-12-20T04:07:51;98386.78;;;4.07;100.00
18509;BME280;9383;50.928;12.116;2023-12-20T04:10:27;98386.81;;;4.04;100.00
18509;BME280;9383;50.928;12.116;2023-12-20T04:13:09;98399.09;;;4.04;100.00
18509;BME280;9383;50.928;12.116;2023-12-20T04:15:38;98294.38;;;3.43;100.00
18509;BME280;9383;50.928;12.116;2023-12-20T04:18:13;98325.41;;;3.66;100.00
18509;BME280;9383;50.928;12.116;2023-12-20T04:20:39;98405.97;;;4.10;100.00
18509;BME280;9383;50.928;12.116;2023-12-20T04:23:05;98336.78;;;3.68;100.00
18509;BME280;9383;50.928;12.116;2023-12-20T04:25:43;98376.53;;;3.93;100.00
18509;BME280;9383;50.928;12.116;2023-12-20T04:28:18;98334.91;;;3.73;100.00
18509;BME280;9383;50.928;12.116;2023-12-20T04:30:48;98369.53;;;3.94;100.00
18509;BME280;9383;50.928;12.116;2023-12-20T04:33:22;98356.47;;;3.91;100.00
18509;BME280;9383;50.928;12.116;2023-12-20T04:36:09;98390.09;;;4.17;100.00
18509;BME280;9383;50.928;12.116;2023-12-20T04:38:37;98327.00;;;3.76;100.00
18509;BME280;9383;50.928;12.116;2023-12-20T04:41:04;98365.19;;;3.93;100.00
18509;BME280;9383;50.928;12.116;2023-12-20T04:43:42;98348.66;;;3.88;100.00
18509;BME280;9383;50.928;12.116;2023-12-20T04:46:09;98401.41;;;4.21;100.00
18509;BME280;9383;50.928;12.116;2023-12-20T04:48:46;98301.94;;;3.60;100.00
18509;BME280;9383;50.928;12.116;2023-12-20T04:51:23;98380.78;;;4.01;100.00
18509;BME280;9383;50.928;12.116;2023-12-20T04:53:49;98402.25;;;4.23;100.00
18509;BME280;9383;50.928;12.116;2023-12-20T04:56:17;98392.59;;;4.25;100.00
18509;BME280;9383;50.928;12.116;2023-12-20T04:58:55;98334.78;;;3.83;100.00
18509;BME280;9383;50.928;12.116;2023-12-20T05:01:29;98400.44;;;4.27;100.00
18509;BME280;9383;50.928;12.116;2023-12-20T05:04:15;98411.75;;;4.29;100.00
18509;BME280;9383;50.928;12.116;2023-12-20T05:06:46;98331.25;;;3.84;100.00
18509;BME280;9383;50.928;12.116;2023-12-20T05:09:13;98399.63;;;4.23;100.00
18509;BME280;9383;50.928;12.116;2023-12-20T05:11:44;98410.09;;;4.25;100.00
18509;BME280;9383;50.928;12.116;2023-12-20T05:14:11;98408.25;;;4.28;100.00
18509;BME280;9383;50.928;12.116;2023-12-20T05:16:54;98417.88;;;4.29;100.00
18509;BME280;9383;50.928;12.116;2023-12-20T05:19:40;98420.47;;;4.31;100.00
18509;BME280;9383;50.928;12.116;2023-12-20T05:22:37;98434.47;;;4.31;100.00
18509;BME280;9383;50.928;12.116;2023-12-20T05:25:25;98437.03;;;4.34;100.00
18509;BME280;9383;50.928;12.116;2023-12-20T05:28:07;98443.13;;;4.36;100.00
18509;BME280;9383;50.928;12.116;2023-12-20T05:30:33;98444.84;;;4.38;100.00
18509;BME280;9383;50.928;12.116;2023-12-20T05:33:00;98437.84;;;4.38;100.00
18509;BME280;9383;50.928;12.116;2023-12-20T05:35:28;98434.25;;;4.42;100.00
18509;BME280;9383;50.928;12.116;2023-12-20T05:37:56;98434.25;;;4.42;100.00
18509;BME280;9383;50.928;12.116;2023-12-20T05:40:23;98443.88;;;4.42;100.00
18509;BME280;9383;50.928;12.116;2023-12-20T05:42:51;98442.38;;;4.28;100.00
18509;BME280;9383;50.928;12.116;2023-12-20T05:45:18;98345.41;;;3.72;100.00
18509;BME280;9383;50.928;12.116;2023-12-20T05:47:45;98444.00;;;4.37;100.00
18509;BME280;9383;50.928;12.116;2023-12-20T05:50:11;98450.09;;;4.38;100.00
18509;BME280;9383;50.928;12.116;2023-12-20T05:52:52;98366.31;;;3.76;100.00
18509;BME280;9383;50.928;12.116;2023-12-20T05:55:22;98457.06;;;4.39;100.00
18509;BME280;9383;50.928;12.116;2023-12-20T05:57:51;98457.06;;;4.39;100.00
18509;BME280;9383;50.928;12.116;2023-12-20T06:00:24;98451.97;;;4.31;100.00
18509;BME280;9383;50.928;12.116;2023-12-20T06:02:51;98438.16;;;4.21;100.00
18509;BME280;9383;50.928;12.116;2023-12-20T06:05:18;98462.31;;;4.40;100.00
18509;BME280;9383;50.928;12.116;2023-12-20T06:07:45;98452.84;;;4.31;100.00
18509;BME280;9383;50.928;12.116;2023-12-20T06:10:17;98467.50;;;4.42;100.00
18509;BME280;9383;50.928;12.116;2023-12-20T06:12:43;98456.31;;;4.32;100.00
18509;BME280;9383;50.928;12.116;2023-12-20T06:15:13;98428.53;;;4.20;100.00
18509;BME280;9383;50.928;12.116;2023-12-20T06:17:58;98464.94;;;4.39;100.00
18509;BME280;9383;50.928;12.116;2023-12-20T06:20:40;98465.75;;;4.42;100.00
18509;BME280;9383;50.928;12.116;2023-12-20T06:23:26;98352.38;;;3.74;100.00
18509;BME280;9383;50.928;12.116;2023-12-20T06:25:53;98458.75;;;4.43;100.00
18509;BME280;9383;50.928;12.116;2023-12-20T06:28:19;98435.53;;;4.19;100.00
18509;BME280;9383;50.928;12.116;2023-12-20T06:30:45;98471.97;;;4.38;100.00
18509;BME280;9383;50.928;12.116;2023-12-20T06:33:15;98398.47;;;3.89;100.00
18509;BME280;9383;50.928;12.116;2023-12-20T06:35:58;98471.88;;;4.43;100.00
18509;BME280;9383;50.928;12.116;2023-12-20T06:38:27;98472.75;;;4.43;100.00
18509;BME280;9383;50.928;12.116;2023-12-20T06:40:54;98481.50;;;4.42;100.00
18509;BME280;9383;50.928;12.116;2023-12-20T06:43:22;98486.75;;;4.44;100.00
18509;BME280;9383;50.928;12.116;2023-12-20T06:45:48;98483.22;;;4.45;100.00
18509;BME280;9383;50.928;12.116;2023-12-20T06:48:22;98466.00;;;4.28;100.00
18509;BME280;9383;50.928;12.116;2023-12-20T06:50:48;98484.13;;;4.44;100.00
18509;BME280;9383;50.928;12.116;2023-12-20T06:53:15;98486.69;;;4.45;100.00
18509;BME280;9383;50.928;12.116;2023-12-20T06:55:41;98494.66;;;4.41;100.00
18509;BME280;9383;50.928;12.116;2023-12-20T06:58:09;98489.38;;;4.44;100.00
18509;BME280;9383;50.928;12.116;2023-12-20T07:00:54;98371.53;;;3.79;100.00
18509;BME280;9383;50.928;12.116;2023-12-20T07:03:22;98488.47;;;4.45;100.00
18509;BME280;9383;50.928;12.116;2023-12-20T07:05:48;98491.94;;;4.45;100.00
18509;BME280;9383;50.928;12.116;2023-12-20T07:08:15;98476.19;;;4.45;100.00
18509;BME280;9383;50.928;12.116;2023-12-20T07:10:41;98430.53;;;4.05;100.00
18509;BME280;9383;50.928;12.116;2023-12-20T07:13:08;98477.06;;;4.46;100.00
18509;BME280;9383;50.928;12.116;2023-12-20T07:15:35;98491.03;;;4.46;100.00
18509;BME280;9383;50.928;12.116;2023-12-20T07:18:02;98479.09;;;4.28;100.00
18509;BME280;9383;50.928;12.116;2023-12-20T07:20:29;98489.41;;;4.41;100.00
18509;BME280;9383;50.928;12.116;2023-12-20T07:22:55;98499.88;;;4.41;100.00
18509;BME280;9383;50.928;12.116;2023-12-20T07:25:22;98501.63;;;4.42;100.00
18509;BME280;9383;50.928;12.116;2023-12-20T07:27:48;98484.25;;;4.34;100.00
18509;BME280;9383;50.928;12.116;2023-12-20T07:30:15;98501.53;;;4.48;100.00
18509;BME280;9383;50.928;12.116;2023-12-20T07:32:42;98503.31;;;4.46;100.00
18509;BME280;9383;50.928;12.116;2023-12-20T07:35:08;98508.63;;;4.43;100.00
18509;BME280;9383;50.928;12.116;2023-12-20T07:37:34;98492.19;;;4.31;100.00
18509;BME280;9383;50.928;12.116;2023-12-20T07:40:00;98378.16;;;3.47;100.00
18509;BME280;9383;50.928;12.116;2023-12-20T07:42:27;98512.94;;;4.45;100.00
18509;BME280;9383;50.928;12.116;2023-12-20T07:45:05;98469.56;;;4.22;100.00
18509;BME280;9383;50.928;12.116;2023-12-20T07:47:46;98437.53;;;4.05;100.00
18509;BME280;9383;50.928;12.116;2023-12-20T07:50:13;98502.38;;;4.50;100.00
18509;BME280;9383;50.928;12.116;2023-12-20T07:52:53;98441.13;;;3.98;100.00
18509;BME280;9383;50.928;12.116;2023-12-20T07:55:39;98466.84;;;4.30;100.00
18509;BME280;9383;50.928;12.116;2023-12-20T07:58:25;98459.00;;;4.29;100.00
18509;BME280;9383;50.928;12.116;2023-12-20T08:01:11;98433.09;;;4.08;100.00
18509;BME280;9383;50.928;12.116;2023-12-20T08:03:39;98474.75;;;4.29;100.00
18509;BME280;9383;50.928;12.116;2023-12-20T08:06:05;98425.47;;;3.94;100.00
18509;BME280;9383;50.928;12.116;2023-12-20T08:08:32;98504.63;;;4.72;100.00
18509;BME280;9383;50.928;12.116;2023-12-20T08:11:12;98512.94;;;4.94;100.00
18509;BME280;9383;50.928;12.116;2023-12-20T08:13:52;98511.72;;;5.12;100.00
18509;BME280;9383;50.928;12.116;2023-12-20T08:16:29;98514.25;;;5.18;100.00
18509;BME280;9383;50.928;12.116;2023-12-20T08:18:56;98500.00;;;5.29;100.00
18509;BME280;9383;50.928;12.116;2023-12-20T08:21:38;98499.91;;;5.33;100.00
18509;BME280;9383;50.928;12.116;2023-12-20T08:24:04;98497.34;;;5.30;100.00
18509;BME280;9383;50.928;12.116;2023-12-20T08:26:34;98504.50;;;5.24;100.00
18509;BME280;9383;50.928;12.116;2023-12-20T08:29:00;98504.34;;;5.31;100.00
18509;BME280;9383;50.928;12.116;2023-12-20T08:31:27;98510.50;;;5.29;100.00
18509;BME280;9383;50.928;12.116;2023-12-20T08:33:54;98519.25;;;5.31;100.00
18509;BME280;9383;50.928;12.116;2023-12-20T08:36:21;98516.66;;;5.28;100.00
18509;BME280;9383;50.928;12.116;2023-12-20T08:38:49;98521.09;;;5.26;100.00
18509;BME280;9383;50.928;12.116;2023-12-20T08:41:17;98532.50;;;5.26;100.00
18509;BME280;9383;50.928;12.116;2023-12-20T08:43:44;98420.69;;;4.65;100.00
18509;BME280;9383;50.928;12.116;2023-12-20T08:46:15;98497.19;;;5.38;100.00
18509;BME280;9383;50.928;12.116;2023-12-20T08:48:56;98439.63;;;5.26;100.00
18509;BME280;9383;50.928;12.116;2023-12-20T08:51:42;98515.63;;;6.17;100.00
18509;BME280;9383;50.928;12.116;2023-12-20T08:54:10;98527.66;;;6.27;100.00
18509;BME280;9383;50.928;12.116;2023-12-20T08:56:36;98524.84;;;6.35;100.00
18509;BME280;9383;50.928;12.116;2023-12-20T08:59:03;98521.41;;;6.31;100.00
18509;BME280;9383;50.928;12.116;2023-12-20T09:01:41;98517.84;;;6.34;100.00
18509;BME280;9383;50.928;12.116;2023-12-20T09:04:27;98519.84;;;6.24;100.00
18509;BME280;9383;50.928;12.116;2023-12-20T09:06:54;98454.94;;;5.87;100.00
18509;BME280;9383;50.928;12.116;2023-12-20T09:09:20;98515.72;;;6.14;100.00
18509;BME280;9383;50.928;12.116;2023-12-20T09:11:47;98439.72;;;5.62;99.59
18509;BME280;9383;50.928;12.116;2023-12-20T09:14:23;98502.75;;;6.04;99.86
18509;BME280;9383;50.928;12.116;2023-12-20T09:16:50;98506.63;;;5.88;98.17
18509;BME280;9383;50.928;12.116;2023-12-20T09:19:18;98514.69;;;5.82;98.15
18509;BME280;9383;50.928;12.116;2023-12-20T09:22:04;98517.44;;;5.74;99.06
18509;BME280;9383;50.928;12.116;2023-12-20T09:24:32;98512.38;;;5.66;98.67
18509;BME280;9383;50.928;12.116;2023-12-20T09:26:58;98477.88;;;5.39;99.05
18509;BME280;9383;50.928;12.116;2023-12-20T09:29:44;98509.97;;;5.55;98.13
18509;BME280;9383;50.928;12.116;2023-12-20T09:32:21;98504.97;;;5.44;98.66
18509;BME280;9383;50.928;12.116;2023-12-20T09:35:08;98399.44;;;4.78;98.04
18509;BME280;9383;50.928;12.116;2023-12-20T09:37:44;98503.25;;;5.42;98.91
18509;BME280;9383;50.928;12.116;2023-12-20T09:40:26;98467.09;;;5.11;99.19
18509;BME280;9383;50.928;12.116;2023-12-20T09:43:04;98404.69;;;4.79;99.47
18509;BME280;9383;50.928;12.116;2023-12-20T09:45:32;98495.13;;;5.53;100.00
18509;BME280;9383;50.928;12.116;2023-12-20T09:48:11;98468.19;;;5.41;100.00
18509;BME280;9383;50.928;12.116;2023-12-20T09:50:48;98471.53;;;5.49;99.51
18509;BME280;9383;50.928;12.116;2023-12-20T09:53:36;98417.78;;;5.24;99.69
18509;BME280;9383;50.928;12.116;2023-12-20T09:56:15;98418.59;;;5.26;99.32
18509;BME280;9383;50.928;12.116;2023-12-20T09:58:42;98430.66;;;5.36;97.63
18509;BME280;9383;50.928;12.116;2023-12-20T10:01:23;98401.22;;;5.20;96.48
18509;BME280;9383;50.928;12.116;2023-12-20T10:04:06;98416.72;;;5.32;96.83
18509;BME280;9383;50.928;12.116;2023-12-20T10:06:44;98390.78;;;5.17;95.82
18509;BME280;9383;50.928;12.116;2023-12-20T10:09:31;98440.28;;;5.35;95.97
18509;BME280;9383;50.928;12.116;2023-12-20T10:12:15;98474.63;;;5.69;96.33
18509;BME280;9383;50.928;12.116;2023-12-20T10:14:41;98423.53;;;5.41;97.24
18509;BME280;9383;50.928;12.116;2023-12-20T10:17:07;98465.56;;;5.82;96.00
18509;BME280;9383;50.928;12.116;2023-12-20T10:19:34;98473.31;;;5.88;95.44
18509;BME280;9383;50.928;12.116;2023-12-20T10:22:21;98420.38;;;5.65;94.35
18509;BME280;9383;50.928;12.116;2023-12-20T10:24:48;98466.84;;;6.03;94.11
18509;BME280;9383;50.928;12.116;2023-12-20T10:27:14;98460.63;;;6.08;92.43
18509;BME280;9383;50.928;12.116;2023-12-20T10:29:40;98436.06;;;6.07;92.67
18509;BME280;9383;50.928;12.116;2023-12-20T10:32:26;98441.09;;;6.16;92.08
18509;BME280;9383;50.928;12.116;2023-12-20T10:34:58;98445.34;;;6.22;92.77
18509;BME280;9383;50.928;12.116;2023-12-20T10:37:25;98440.91;;;6.23;92.06
18509;BME280;9383;50.928;12.116;2023-12-20T10:39:53;98436.44;;;6.28;92.54
18509;BME280;9383;50.928;12.116;2023-12-20T10:42:28;98423.19;;;6.29;91.15
18509;BME280;9383;50.928;12.116;2023-12-20T10:44:56;98418.75;;;6.31;91.41
18509;BME280;9383;50.928;12.116;2023-12-20T10:47:25;98418.94;;;6.25;90.24
18509;BME280;9383;50.928;12.116;2023-12-20T10:49:52;98343.44;;;5.91;90.41
18509;BME280;9383;50.928;12.116;2023-12-20T10:52:29;98402.13;;;6.31;90.02
18509;BME280;9383;50.928;12.116;2023-12-20T10:54:59;98405.56;;;6.33;89.50
18509;BME280;9383;50.928;12.116;2023-12-20T10:57:26;98391.63;;;6.29;89.36
18509;BME280;9383;50.928;12.116;2023-12-20T11:00:14;98397.47;;;6.41;89.38
18509;BME280;9383;50.928;12.116;2023-12-20T11:02:42;98402.81;;;6.38;89.34
18509;BME280;9383;50.928;12.116;2023-12-20T11:08:16;98408.06;;;6.39;87.95
18509;BME280;9383;50.928;12.116;2023-12-20T11:13:28;98347.38;;;6.11;88.35
18509;BME280;9383;50.928;12.116;2023-12-20T11:15:58;98400.97;;;6.41;88.31
18509;BME280;9383;50.928;12.116;2023-12-20T11:18:31;98402.81;;;6.38;87.19
18509;BME280;9383;50.928;12.116;2023-12-20T11:21:04;98401.75;;;6.45;87.91
18509;BME280;9383;50.928;12.116;2023-12-20T11:23:43;98386.28;;;6.32;86.34
18509;BME280;9383;50.928;12.116;2023-12-20T11:26:10;98346.22;;;6.21;87.58
18509;BME280;9383;50.928;12.116;2023-12-20T11:28:37;98398.75;;;6.59;87.08
18509;BME280;9383;50.928;12.116;2023-12-20T11:31:03;98396.84;;;6.64;87.31
18509;BME280;9383;50.928;12.116;2023-12-20T11:33:39;98369.88;;;6.54;85.47
18509;BME280;9383;50.928;12.116;2023-12-20T11:36:15;98363.66;;;6.58;85.69
18509;BME280;9383;50.928;12.116;2023-12-20T11:38:57;98380.53;;;6.81;86.87
18509;BME280;9383;50.928;12.116;2023-12-20T11:41:23;98365.59;;;6.83;85.44
18509;BME280;9383;50.928;12.116;2023-12-20T11:43:53;98275.78;;;6.31;86.23
18509;BME280;9383;50.928;12.116;2023-12-20T11:46:21;98364.09;;;7.04;86.04
18509;BME280;9383;50.928;12.116;2023-12-20T11:49:00;98290.91;;;6.54;84.41
18509;BME280;9383;50.928;12.116;2023-12-20T11:51:27;98280.91;;;6.66;83.42
18509;BME280;9383;50.928;12.116;2023-12-20T11:53:53;98263.59;;;6.58;82.96
18509;BME280;9383;50.928;12.116;2023-12-20T11:56:37;98344.38;;;7.16;81.29
18509;BME280;9383;50.928;12.116;2023-12-20T11:59:18;98343.31;;;7.24;81.49
18509;BME280;9383;50.928;12.116;2023-12-20T12:02:03;98321.78;;;7.09;80.11
18509;BME280;9383;50.928;12.116;2023-12-20T12:04:45;98261.94;;;6.84;81.07
18509;BME280;9383;50.928;12.116;2023-12-20T12:07:18;98344.38;;;7.45;81.04
18509;BME280;9383;50.928;12.116;2023-12-20T12:09:45;98338.81;;;7.54;82.26
18509;BME280;9383;50.928;12.116;2023-12-20T12:12:32;98263.34;;;7.23;80.32
18509;BME280;9383;50.928;12.116;2023-12-20T12:15:18;98262.16;;;7.32;80.29
18509;BME280;9383;50.928;12.116;2023-12-20T12:17:54;98274.25;;;7.39;79.06
18509;BME280;9383;50.928;12.116;2023-12-20T12:20:22;98228.63;;;7.10;76.16
18509;BME280;9383;50.928;12.116;2023-12-20T12:23:05;98292.94;;;7.60;76.82
18509;BME280;9383;50.928;12.116;2023-12-20T12:25:51;98289.00;;;7.72;77.35
18509;BME280;9383;50.928;12.116;2023-12-20T12:28:18;98316.06;;;8.04;77.37
18509;BME280;9383;50.928;12.116;2023-12-20T12:30:59;98295.16;;;7.98;76.15
18509;BME280;9383;50.928;12.116;2023-12-20T12:33:26;98317.25;;;8.21;74.01
18509;BME280;9383;50.928;12.116;2023-12-20T12:35:53;98315.84;;;8.10;72.03
18509;BME280;9383;50.928;12.116;2023-12-20T12:38:36;98305.81;;;8.20;72.56
18509;BME280;9383;50.928;12.116;2023-12-20T12:41:03;98299.16;;;8.34;72.36
18509;BME280;9383;50.928;12.116;2023-12-20T12:43:29;98239.56;;;8.02;72.14
18509;BME280;9383;50.928;12.116;2023-12-20T12:45:55;98275.53;;;8.30;70.66
18509;BME280;9383;50.928;12.116;2023-12-20T12:48:22;98283.13;;;8.40;71.81
18509;BME280;9383;50.928;12.116;2023-12-20T12:50:49;98283.06;;;8.41;72.00
18509;BME280;9383;50.928;12.116;2023-12-20T12:53:37;98241.94;;;8.10;72.13
18509;BME280;9383;50.928;12.116;2023-12-20T12:56:23;98260.56;;;8.06;71.43
18509;BME280;9383;50.928;12.116;2023-12-20T12:58:49;98271.25;;;8.02;71.72
18509;BME280;9383;50.928;12.116;2023-12-20T13:01:20;98163.00;;;7.28;71.66
18509;BME280;9383;50.928;12.116;2023-12-20T13:03:47;98276.91;;;7.92;72.35
18509;BME280;9383;50.928;12.116;2023-12-20T13:06:33;98201.50;;;7.34;72.82
18509;BME280;9383;50.928;12.116;2023-12-20T13:09:19;98257.72;;;7.61;73.65
18509;BME280;9383;50.928;12.116;2023-12-20T13:11:45;98206.34;;;7.21;74.58
18509;BME280;9383;50.928;12.116;2023-12-20T13:14:11;98163.84;;;7.03;75.58
18509;BME280;9383;50.928;12.116;2023-12-20T13:17:01;98240.97;;;7.62;75.62
18509;BME280;9383;50.928;12.116;2023-12-20T13:19:27;98215.34;;;7.91;73.98
18509;BME280;9383;50.928;12.116;2023-12-20T13:21:54;98249.66;;;8.16;74.02
18509;BME280;9383;50.928;12.116;2023-12-20T13:24:40;98235.16;;;8.27;73.13
18509;BME280;9383;50.928;12.116;2023-12-20T13:27:10;98235.34;;;8.46;72.68
18509;BME280;9383;50.928;12.116;2023-12-20T13:29:50;98196.28;;;8.78;68.50
18509;BME280;9383;50.928;12.116;2023-12-20T13:32:21;98218.28;;;9.23;67.38
18509;BME280;9383;50.928;12.116;2023-12-20T13:34:47;98232.97;;;9.74;65.35
18509;BME280;9383;50.928;12.116;2023-12-20T13:37:14;98076.88;;;9.11;63.72
18509;BME280;9383;50.928;12.116;2023-12-20T13:39:47;98235.78;;;10.50;61.25
18509;BME280;9383;50.928;12.116;2023-12-20T13:42:27;98239.59;;;10.83;59.88